Pedro Bay, Alaska
Current Conditions -  °F | °C
As of 7:53 AM on Monday 22 Dec 2014 (Local Time) from PAIL Reporting Station
Overcast Overcast  
Wind Chill: 24°   Ceiling: 5000
Heat Index: 24°   Visibility: 10mi
Dew Point: 20°   Wind: 0mph
Humidity: 84%   Direction: NA
Pressure: 29.72"   Gusts: NA
Location:  59.79°N, 154.14°W
Report Text: PAIL 221653Z 00000KT 10SM BKN050 OVC070 M04/M07 A2972 RMK AO2 SNB13E38 SLP070 P0000 T10441067
Loading
Personal Weather Stations






























Interactive Weather Map New forecast layout! Learn more

10-Day Weather Forecast

Advertisements
Track Severe Weather on mobile